createdAt,value
2017-01-28T00:00:21.871Z,0
2017-01-28T00:01:03.634Z,0
2017-01-28T00:03:18.980Z,0
2017-01-28T00:04:00.472Z,0
2017-01-28T00:06:31.645Z,0
2017-01-28T00:07:13.391Z,0
2017-01-28T00:07:55.096Z,0
2017-01-28T00:10:15.694Z,0
2017-01-28T00:10:57.243Z,0
2017-01-28T00:11:39.009Z,0
2017-01-28T00:12:20.742Z,0
2017-01-28T00:13:02.491Z,0
2017-01-28T00:13:44.208Z,0
2017-01-28T00:14:25.792Z,0
2017-01-28T00:15:07.569Z,0
2017-01-28T00:15:49.279Z,0
2017-01-28T00:16:31.097Z,0
2017-01-28T00:17:12.584Z,0
2017-01-28T00:19:43.751Z,0
2017-01-28T00:20:25.478Z,0
2017-01-28T00:21:07.208Z,0
2017-01-28T00:21:48.903Z,0
2017-01-28T00:22:30.642Z,0
2017-01-28T00:23:12.374Z,0
2017-01-28T00:23:54.097Z,0
2017-01-28T00:24:35.827Z,0
2017-01-28T00:25:17.421Z,0
2017-01-28T00:25:59.139Z,0
2017-01-28T00:26:40.769Z,0
2017-01-28T00:27:22.572Z,0
2017-01-28T00:28:04.322Z,0
2017-01-28T00:28:46.110Z,0
2017-01-28T00:29:27.909Z,0
2017-01-28T00:30:09.572Z,0
2017-01-28T00:30:51.112Z,0
2017-01-28T00:31:32.929Z,0
2017-01-28T00:32:14.662Z,0
2017-01-28T00:34:35.399Z,0
2017-01-28T00:36:50.868Z,0
2017-01-28T00:37:32.614Z,0
2017-01-28T00:38:14.382Z,0
2017-01-28T00:38:56.071Z,0
2017-01-28T00:39:37.746Z,0
2017-01-28T00:41:53.192Z,0
2017-01-28T00:42:34.813Z,0
2017-01-28T00:44:50.170Z,0
2017-01-28T00:45:31.920Z,0
2017-01-28T00:46:13.662Z,0
2017-01-28T00:46:55.408Z,0
2017-01-28T00:49:16.070Z,0
2017-01-28T00:49:57.797Z,0
2017-01-28T00:50:39.372Z,0
2017-01-28T00:52:39.307Z,0
2017-01-28T00:53:21.016Z,0
2017-01-28T00:54:02.728Z,0
2017-01-28T00:54:44.291Z,0
2017-01-28T00:55:26.001Z,0
2017-01-28T00:56:07.650Z,0
2017-01-28T00:56:49.392Z,0
2017-01-28T00:57:31.097Z,0
2017-01-28T00:58:12.782Z,0
2017-01-28T00:58:54.639Z,0
2017-01-28T00:59:36.436Z,0
2017-01-28T01:00:17.687Z,0
2017-01-28T01:00:59.175Z,0
2017-01-28T01:01:40.691Z,0
2017-01-28T01:02:22.303Z,0
2017-01-28T01:03:03.875Z,0
2017-01-28T01:03:45.603Z,0
2017-01-28T01:04:27.392Z,0
2017-01-28T01:05:08.909Z,0
2017-01-28T01:05:50.549Z,0
2017-01-28T01:06:32.357Z,0
2017-01-28T01:08:53.043Z,0
2017-01-28T01:09:34.808Z,0
2017-01-28T01:10:16.338Z,0
2017-01-28T01:12:47.355Z,0
2017-01-28T01:13:29.029Z,0
2017-01-28T01:14:10.826Z,0
2017-01-28T01:14:52.292Z,0
2017-01-28T01:15:34.024Z,0
2017-01-28T01:16:15.786Z,0
2017-01-28T01:16:57.402Z,0
2017-01-28T01:17:39.166Z,0
2017-01-28T01:19:54.540Z,0
2017-01-28T01:20:36.297Z,0
2017-01-28T01:21:18.086Z,0
2017-01-28T01:21:59.795Z,0
2017-01-28T01:22:41.561Z,0
2017-01-28T01:23:23.341Z,0
2017-01-28T01:24:05.082Z,0
2017-01-28T01:24:46.882Z,0
2017-01-28T01:25:28.552Z,0
2017-01-28T01:26:10.088Z,0
2017-01-28T01:26:51.864Z,0
2017-01-28T01:27:33.604Z,0
2017-01-28T01:28:15.373Z,0
2017-01-28T01:28:57.156Z,0
2017-01-28T01:29:38.801Z,0
2017-01-28T01:35:44.499Z,0
2017-01-28T01:36:26.096Z,0
2017-01-28T01:37:07.968Z,0
2017-01-28T01:37:49.609Z,0
2017-01-28T01:38:31.336Z,0
2017-01-28T01:40:46.688Z,0
2017-01-28T01:41:28.342Z,0
2017-01-28T01:42:09.660Z,0
2017-01-28T01:44:40.724Z,0
2017-01-28T01:46:56.048Z,0
2017-01-28T01:49:11.428Z,0
2017-01-28T01:49:53.194Z,0
2017-01-28T01:50:34.819Z,0
2017-01-28T01:51:16.652Z,0
2017-01-28T01:51:58.252Z,0
2017-01-28T01:52:40.004Z,0
2017-01-28T01:53:21.720Z,0
2017-01-28T01:54:03.316Z,0
2017-01-28T01:54:44.959Z,0
2017-01-28T01:55:26.613Z,0
2017-01-28T01:56:08.439Z,0
2017-01-28T01:56:50.190Z,0
2017-01-28T01:57:31.905Z,0
2017-01-28T02:00:07.445Z,0
2017-01-28T02:00:47.977Z,0
2017-01-28T02:01:28.499Z,0
2017-01-28T02:02:09.033Z,0
2017-01-28T02:02:49.561Z,0
2017-01-28T02:03:30.089Z,0
2017-01-28T02:04:10.630Z,0
2017-01-28T02:04:51.160Z,0
2017-01-28T02:05:31.693Z,0
2017-01-28T02:06:12.231Z,0
2017-01-28T02:06:52.832Z,0
2017-01-28T02:07:33.380Z,0
2017-01-28T02:08:13.920Z,0
2017-01-28T02:08:54.449Z,0
2017-01-28T02:09:34.970Z,0
2017-01-28T02:10:15.498Z,0
2017-01-28T02:10:56.035Z,0
2017-01-28T02:11:36.558Z,0
2017-01-28T02:12:17.088Z,0
2017-01-28T02:12:57.617Z,0
2017-01-28T02:13:38.142Z,0
2017-01-28T02:14:18.676Z,0
2017-01-28T02:14:59.204Z,0
2017-01-28T02:15:39.733Z,0
2017-01-28T02:16:20.263Z,0
2017-01-28T02:17:00.796Z,0
2017-01-28T02:17:41.332Z,0
2017-01-28T02:18:21.861Z,0
2017-01-28T02:19:02.407Z,0
2017-01-28T02:19:42.935Z,0
2017-01-28T02:20:23.493Z,0
2017-01-28T02:21:04.019Z,0
2017-01-28T02:21:44.550Z,0
2017-01-28T02:22:25.084Z,0
2017-01-28T02:23:05.612Z,0
2017-01-28T02:23:46.145Z,0
2017-01-28T02:24:26.693Z,0
2017-01-28T02:25:07.201Z,0
2017-01-28T02:25:47.733Z,0
2017-01-28T02:26:28.263Z,0
2017-01-28T02:27:08.794Z,0
2017-01-28T02:27:49.325Z,0
2017-01-28T02:28:29.862Z,0
2017-01-28T02:29:10.403Z,0
2017-01-28T02:29:50.932Z,0
2017-01-28T02:30:31.463Z,0
2017-01-28T02:31:11.988Z,0
2017-01-28T02:31:52.513Z,0
2017-01-28T02:32:33.052Z,0
2017-01-28T02:33:13.587Z,0
2017-01-28T02:33:54.119Z,0
2017-01-28T02:34:34.648Z,0
2017-01-28T02:35:15.183Z,0
2017-01-28T02:35:55.709Z,0
2017-01-28T02:36:36.241Z,0
2017-01-28T02:37:16.771Z,0
2017-01-28T02:37:57.303Z,0
2017-01-28T02:38:37.837Z,0
2017-01-28T02:39:18.368Z,0
2017-01-28T02:39:58.907Z,0
2017-01-28T02:40:39.458Z,0
2017-01-28T02:41:19.984Z,0
2017-01-28T02:42:00.522Z,0
2017-01-28T02:42:41.054Z,0
2017-01-28T02:43:21.588Z,0
2017-01-28T02:44:02.120Z,0
2017-01-28T02:44:42.661Z,0
2017-01-28T02:45:23.200Z,0
2017-01-28T02:46:03.728Z,0
2017-01-28T02:46:44.264Z,0
2017-01-28T02:47:24.791Z,0
2017-01-28T02:48:05.324Z,0
2017-01-28T02:48:45.869Z,0
2017-01-28T02:49:26.392Z,0
2017-01-28T02:50:06.914Z,0
2017-01-28T02:50:47.441Z,0
2017-01-28T02:51:27.972Z,0
2017-01-28T02:52:08.503Z,0
2017-01-28T02:52:49.031Z,0
2017-01-28T02:53:29.562Z,0
2017-01-28T02:54:10.085Z,0
2017-01-28T02:54:50.617Z,0
2017-01-28T02:55:31.147Z,0
2017-01-28T02:56:11.687Z,0
2017-01-28T02:56:52.203Z,0
2017-01-28T02:57:32.731Z,0
2017-01-28T02:58:13.260Z,0
2017-01-28T02:58:53.797Z,0
2017-01-28T02:59:34.334Z,0
2017-01-28T03:00:14.869Z,0
2017-01-28T03:00:55.397Z,0
2017-01-28T03:01:35.931Z,0
2017-01-28T03:02:16.457Z,0
2017-01-28T03:02:56.990Z,0
2017-01-28T03:03:37.529Z,0
2017-01-28T03:04:18.059Z,0
2017-01-28T03:04:58.587Z,0
2017-01-28T03:05:39.125Z,0
2017-01-28T03:06:19.659Z,0
2017-01-28T03:07:00.190Z,0
2017-01-28T03:07:40.722Z,0
2017-01-28T03:08:21.277Z,0
2017-01-28T03:09:01.800Z,0
2017-01-28T03:09:42.331Z,0
2017-01-28T03:10:22.864Z,0
2017-01-28T03:11:03.394Z,0
2017-01-28T03:11:43.924Z,0
2017-01-28T03:12:24.465Z,0
2017-01-28T03:13:04.987Z,0
2017-01-28T03:13:45.518Z,0
2017-01-28T03:14:26.052Z,0
2017-01-28T03:15:06.597Z,0
2017-01-28T03:15:47.127Z,0
2017-01-28T03:16:27.658Z,0
2017-01-28T03:17:08.188Z,0
2017-01-28T03:17:48.736Z,0
2017-01-28T03:18:29.249Z,0
2017-01-28T03:19:09.771Z,0
2017-01-28T03:19:50.298Z,0
2017-01-28T03:20:30.835Z,0
2017-01-28T03:21:11.367Z,0
2017-01-28T03:21:51.887Z,0
2017-01-28T03:22:32.408Z,0
2017-01-28T03:23:12.940Z,0
2017-01-28T03:23:53.469Z,0
2017-01-28T03:24:34.003Z,0
2017-01-28T03:25:14.534Z,0
2017-01-28T03:25:55.062Z,0
2017-01-28T03:26:35.621Z,0
2017-01-28T03:27:16.125Z,0
2017-01-28T03:27:56.654Z,0
2017-01-28T03:28:37.184Z,0
2017-01-28T03:29:17.708Z,0
2017-01-28T03:29:58.239Z,0
2017-01-28T03:30:38.772Z,0
2017-01-28T03:31:19.302Z,0
2017-01-28T03:31:59.827Z,0
2017-01-28T03:32:40.356Z,0
2017-01-28T03:33:20.891Z,0
2017-01-28T03:34:01.424Z,0
2017-01-28T03:34:41.958Z,0
2017-01-28T03:35:22.479Z,0
2017-01-28T03:36:03.008Z,0
2017-01-28T03:36:43.543Z,0
2017-01-28T03:37:24.078Z,0
2017-01-28T03:38:04.593Z,0
2017-01-28T03:38:45.123Z,0
2017-01-28T03:39:25.653Z,0
2017-01-28T03:40:06.182Z,0
2017-01-28T03:40:46.712Z,0
2017-01-28T03:41:27.244Z,0
2017-01-28T03:42:07.771Z,0
2017-01-28T03:42:48.302Z,0
2017-01-28T03:43:28.832Z,0
2017-01-28T03:44:09.365Z,0
2017-01-28T03:44:49.906Z,0
2017-01-28T03:45:30.421Z,0
2017-01-28T03:46:10.955Z,0
2017-01-28T03:46:51.486Z,0
2017-01-28T03:47:32.014Z,0
2017-01-28T03:48:12.529Z,0
2017-01-28T03:48:53.060Z,0
2017-01-28T03:49:33.593Z,0
2017-01-28T03:50:14.127Z,0
2017-01-28T03:50:54.647Z,0
2017-01-28T03:51:35.180Z,0
2017-01-28T03:52:15.713Z,0
2017-01-28T03:52:56.249Z,0
2017-01-28T03:53:36.780Z,0
2017-01-28T03:54:17.314Z,0
2017-01-28T03:54:57.840Z,0
2017-01-28T03:55:38.368Z,0
2017-01-28T03:56:18.907Z,0
2017-01-28T03:56:59.438Z,0
2017-01-28T03:57:39.956Z,0
2017-01-28T03:58:20.477Z,0
2017-01-28T03:59:01.011Z,0
2017-01-28T03:59:41.542Z,0
2017-01-28T04:00:22.072Z,0
2017-01-28T04:01:02.594Z,0
2017-01-28T04:01:43.125Z,0
2017-01-28T04:02:23.658Z,0
2017-01-28T04:03:04.184Z,0
2017-01-28T04:03:44.724Z,0
2017-01-28T04:04:25.277Z,0
2017-01-28T04:05:05.812Z,0
2017-01-28T04:05:46.340Z,0
2017-01-28T04:06:26.867Z,0
2017-01-28T04:07:07.401Z,0
2017-01-28T04:07:47.929Z,0
2017-01-28T04:08:28.463Z,0
2017-01-28T04:09:08.985Z,0
2017-01-28T04:09:49.518Z,0
2017-01-28T04:10:30.051Z,0
2017-01-28T04:11:10.582Z,0
2017-01-28T04:11:51.109Z,0
2017-01-28T04:12:31.629Z,0
2017-01-28T04:13:12.173Z,0
2017-01-28T04:13:52.708Z,0
2017-01-28T04:14:33.234Z,0
2017-01-28T04:15:13.778Z,0
2017-01-28T04:15:54.304Z,0
2017-01-28T04:16:34.832Z,0
2017-01-28T04:17:15.380Z,0
2017-01-28T04:17:55.918Z,0
2017-01-28T04:18:36.451Z,0
2017-01-28T04:19:16.984Z,0
2017-01-28T04:19:57.512Z,0
2017-01-28T04:20:38.035Z,0
2017-01-28T04:21:18.572Z,0
2017-01-28T04:21:59.105Z,0
2017-01-28T04:22:39.636Z,0
2017-01-28T04:23:20.167Z,0
2017-01-28T04:24:00.691Z,0
2017-01-28T04:24:41.229Z,0
2017-01-28T04:25:21.760Z,0
2017-01-28T04:26:02.299Z,0
2017-01-28T04:26:42.837Z,0
2017-01-28T04:27:23.370Z,0
2017-01-28T04:28:03.898Z,0
2017-01-28T04:28:44.430Z,0
2017-01-28T04:29:24.962Z,0
2017-01-28T04:30:05.493Z,0
2017-01-28T04:30:46.021Z,0
2017-01-28T04:31:26.558Z,0
2017-01-28T04:32:07.090Z,0
2017-01-28T04:32:47.717Z,0
2017-01-28T04:33:28.209Z,0
2017-01-28T04:34:08.727Z,0
2017-01-28T04:34:49.255Z,0
2017-01-28T04:35:29.783Z,0
2017-01-28T04:36:10.312Z,0
2017-01-28T04:36:50.848Z,0
2017-01-28T04:37:31.373Z,0
2017-01-28T04:38:11.897Z,0
2017-01-28T04:38:52.429Z,0
2017-01-28T04:39:32.961Z,0
2017-01-28T04:40:13.492Z,0
2017-01-28T04:40:54.027Z,0
2017-01-28T04:41:34.549Z,0
2017-01-28T04:42:15.087Z,0
2017-01-28T04:42:55.599Z,0
2017-01-28T04:43:36.134Z,0
2017-01-28T04:44:16.669Z,0
2017-01-28T04:44:57.202Z,0
2017-01-28T04:45:37.731Z,0
2017-01-28T04:46:18.250Z,0
2017-01-28T04:46:58.786Z,0
2017-01-28T04:47:39.322Z,0
2017-01-28T04:48:19.854Z,0
2017-01-28T04:49:00.380Z,0
2017-01-28T04:49:40.909Z,0
2017-01-28T04:50:21.442Z,0
2017-01-28T04:51:01.982Z,0
2017-01-28T04:51:42.517Z,0
2017-01-28T04:52:23.052Z,0
2017-01-28T04:53:03.617Z,0
2017-01-28T04:53:44.156Z,0
2017-01-28T04:54:24.690Z,0
2017-01-28T04:55:05.223Z,0
2017-01-28T04:55:45.752Z,0
2017-01-28T04:56:26.287Z,0
2017-01-28T04:57:06.809Z,0
2017-01-28T04:57:47.341Z,0
2017-01-28T04:58:27.877Z,0
2017-01-28T04:59:08.406Z,0
2017-01-28T04:59:48.948Z,0
2017-01-28T05:00:29.481Z,0
2017-01-28T05:01:10.022Z,0
2017-01-28T05:01:50.563Z,0
2017-01-28T05:02:31.091Z,0
2017-01-28T05:03:11.613Z,0
2017-01-28T05:03:52.148Z,0
2017-01-28T05:04:32.683Z,0
2017-01-28T05:05:13.214Z,0
2017-01-28T05:05:53.749Z,0
2017-01-28T05:06:34.297Z,0
2017-01-28T05:07:14.826Z,0
2017-01-28T05:07:55.357Z,0
2017-01-28T05:08:35.896Z,0
2017-01-28T05:09:16.430Z,0
2017-01-28T05:09:56.962Z,0
2017-01-28T05:10:37.499Z,0
2017-01-28T05:11:18.029Z,0
2017-01-28T05:11:58.567Z,0
2017-01-28T05:12:39.106Z,0
2017-01-28T05:13:19.640Z,0
2017-01-28T05:14:00.178Z,0
2017-01-28T05:14:40.713Z,0
2017-01-28T05:15:21.243Z,0
2017-01-28T05:16:01.771Z,0
2017-01-28T05:16:42.313Z,0
2017-01-28T05:17:22.842Z,0
2017-01-28T05:18:03.380Z,0
2017-01-28T05:18:43.926Z,0
2017-01-28T05:19:24.458Z,0
2017-01-28T05:20:04.994Z,0
2017-01-28T05:20:45.520Z,0
2017-01-28T05:21:26.039Z,0
2017-01-28T05:22:06.576Z,0
2017-01-28T05:22:47.100Z,0
2017-01-28T05:23:27.628Z,0
2017-01-28T05:24:08.163Z,0
2017-01-28T05:24:48.701Z,0
2017-01-28T05:25:29.229Z,0
2017-01-28T05:26:09.759Z,0
2017-01-28T05:26:50.299Z,0
2017-01-28T05:27:30.830Z,0
2017-01-28T05:28:11.367Z,0
2017-01-28T05:28:51.886Z,0
2017-01-28T05:29:32.432Z,0
2017-01-28T05:30:12.963Z,0
2017-01-28T05:30:53.497Z,0
2017-01-28T05:31:34.031Z,0
2017-01-28T05:32:14.576Z,0
2017-01-28T05:32:55.114Z,0
2017-01-28T05:33:35.641Z,0
2017-01-28T05:34:16.183Z,0
2017-01-28T05:34:56.697Z,0
2017-01-28T05:35:37.226Z,0
2017-01-28T05:36:17.764Z,0
2017-01-28T05:36:58.288Z,0
2017-01-28T05:37:38.818Z,0
2017-01-28T05:38:19.378Z,0
2017-01-28T05:38:59.885Z,0
2017-01-28T05:39:40.425Z,0
2017-01-28T05:40:20.942Z,0
2017-01-28T05:41:01.488Z,0
2017-01-28T05:41:42.020Z,0
2017-01-28T05:42:22.556Z,0
2017-01-28T05:43:03.079Z,0
2017-01-28T05:43:43.612Z,0
2017-01-28T05:44:24.141Z,0
2017-01-28T05:45:04.674Z,0
2017-01-28T05:45:45.194Z,0
2017-01-28T05:46:25.727Z,0
2017-01-28T05:47:06.253Z,0
2017-01-28T05:47:46.790Z,0
2017-01-28T05:48:27.309Z,0
2017-01-28T05:49:07.845Z,0
2017-01-28T05:49:48.380Z,0
2017-01-28T05:50:28.920Z,0
2017-01-28T05:51:09.446Z,0
2017-01-28T05:51:49.976Z,0
2017-01-28T05:52:30.496Z,0
2017-01-28T05:53:11.032Z,0
2017-01-28T05:53:51.568Z,0
2017-01-28T05:54:32.098Z,0
2017-01-28T05:55:12.636Z,0
2017-01-28T05:55:53.165Z,0
2017-01-28T05:56:33.700Z,0
2017-01-28T05:57:14.236Z,0
2017-01-28T05:57:54.772Z,0
2017-01-28T05:58:35.303Z,0
2017-01-28T05:59:15.838Z,0
2017-01-28T05:59:56.374Z,0
2017-01-28T06:00:36.901Z,0
2017-01-28T06:01:17.437Z,0
2017-01-28T06:01:57.990Z,0
2017-01-28T06:02:38.525Z,0
2017-01-28T06:03:19.057Z,0
2017-01-28T06:03:59.595Z,0
2017-01-28T06:04:40.132Z,0
2017-01-28T06:05:20.664Z,0
2017-01-28T06:06:01.198Z,0
2017-01-28T06:06:41.729Z,0
2017-01-28T06:07:22.254Z,0
2017-01-28T06:08:02.791Z,0
2017-01-28T06:08:43.309Z,0
2017-01-28T06:09:23.844Z,0
2017-01-28T06:10:04.380Z,0
2017-01-28T06:10:44.913Z,0
2017-01-28T06:11:25.439Z,0
2017-01-28T06:12:06.004Z,0
2017-01-28T06:12:46.510Z,0
2017-01-28T06:13:27.048Z,0
2017-01-28T06:14:07.579Z,0
2017-01-28T06:14:48.112Z,0
2017-01-28T06:15:28.636Z,0
2017-01-28T06:16:09.180Z,0
2017-01-28T06:16:49.691Z,0
2017-01-28T06:17:30.232Z,0
2017-01-28T06:18:10.770Z,0
2017-01-28T06:18:51.334Z,0
2017-01-28T06:19:31.868Z,0
2017-01-28T06:20:12.393Z,0
2017-01-28T06:20:52.931Z,0
2017-01-28T06:21:33.463Z,0
2017-01-28T06:22:14.000Z,0
2017-01-28T06:22:54.621Z,0
2017-01-28T06:23:35.159Z,0
2017-01-28T06:24:15.691Z,0
2017-01-28T06:24:56.223Z,0
2017-01-28T06:25:36.755Z,0
2017-01-28T06:26:17.296Z,0
2017-01-28T06:26:57.825Z,0
2017-01-28T06:27:38.356Z,0
2017-01-28T06:28:18.876Z,0
2017-01-28T06:28:59.411Z,0
2017-01-28T06:29:39.943Z,0
2017-01-28T06:30:20.479Z,0
2017-01-28T06:31:01.005Z,0
2017-01-28T06:31:41.536Z,0
2017-01-28T06:32:22.068Z,0
2017-01-28T06:33:02.603Z,0
2017-01-28T06:33:43.128Z,0
2017-01-28T06:34:23.657Z,0
2017-01-28T06:35:04.198Z,0
2017-01-28T06:35:44.713Z,0
2017-01-28T06:36:25.231Z,0
2017-01-28T06:37:05.768Z,0
2017-01-28T06:37:46.300Z,0
2017-01-28T06:38:26.831Z,0
2017-01-28T06:39:07.370Z,0
2017-01-28T06:39:47.905Z,0
2017-01-28T06:40:28.435Z,0
2017-01-28T06:41:08.971Z,0
2017-01-28T06:41:49.495Z,0
2017-01-28T06:42:30.021Z,4
2017-01-28T06:43:10.560Z,4
2017-01-28T06:43:51.089Z,4
2017-01-28T06:44:31.632Z,0
2017-01-28T06:45:12.153Z,0
2017-01-28T06:45:52.682Z,4
2017-01-28T06:46:33.219Z,4
2017-01-28T06:47:13.753Z,4
2017-01-28T06:47:54.288Z,0
2017-01-28T06:48:34.822Z,4
2017-01-28T06:49:15.355Z,4
2017-01-28T06:49:55.883Z,4
2017-01-28T06:50:36.421Z,4
2017-01-28T06:51:16.947Z,8
2017-01-28T06:51:57.492Z,4
2017-01-28T06:52:38.033Z,8
2017-01-28T06:53:18.555Z,8
2017-01-28T06:53:59.092Z,8
2017-01-28T06:54:39.624Z,8
2017-01-28T06:55:20.162Z,8
2017-01-28T06:56:00.693Z,12
2017-01-28T06:56:41.224Z,12
2017-01-28T06:57:21.750Z,12
2017-01-28T06:58:02.278Z,12
2017-01-28T06:58:42.795Z,16
2017-01-28T06:59:23.327Z,20
2017-01-28T07:00:03.854Z,24
2017-01-28T07:00:44.383Z,24
2017-01-28T07:01:24.929Z,24
2017-01-28T07:02:05.446Z,28
2017-01-28T07:02:46.019Z,32
2017-01-28T07:03:26.517Z,32
2017-01-28T07:04:07.044Z,32
2017-01-28T07:04:47.579Z,36
2017-01-28T07:05:28.115Z,40
2017-01-28T07:06:08.653Z,40
2017-01-28T07:06:49.176Z,48
2017-01-28T07:07:29.707Z,52
2017-01-28T07:08:10.244Z,52
2017-01-28T07:08:50.756Z,56
2017-01-28T07:09:31.304Z,60
2017-01-28T07:10:11.868Z,64
2017-01-28T07:10:52.399Z,72
2017-01-28T07:11:32.911Z,72
2017-01-28T07:12:13.448Z,72
2017-01-28T07:12:53.987Z,80
2017-01-28T07:13:34.510Z,84
2017-01-28T07:14:15.054Z,88
2017-01-28T07:14:55.571Z,92
2017-01-28T07:15:36.104Z,92
2017-01-28T07:16:16.637Z,96
2017-01-28T07:16:57.172Z,104
2017-01-28T07:17:37.703Z,104
2017-01-28T07:18:18.236Z,108
2017-01-28T07:18:58.761Z,120
2017-01-28T07:19:39.297Z,124
2017-01-28T07:20:19.824Z,132
2017-01-28T07:21:00.381Z,140
2017-01-28T07:21:40.910Z,144
2017-01-28T07:22:21.444Z,152
2017-01-28T07:23:01.972Z,160
2017-01-28T07:23:42.483Z,172
2017-01-28T07:24:23.008Z,180
2017-01-28T07:25:03.542Z,188
2017-01-28T07:25:44.078Z,196
2017-01-28T07:26:24.608Z,204
2017-01-28T07:27:05.155Z,208
2017-01-28T07:27:45.670Z,216
2017-01-28T07:28:26.209Z,220
2017-01-28T07:29:06.739Z,228
2017-01-28T07:29:47.271Z,228
2017-01-28T07:30:27.807Z,236
2017-01-28T07:31:08.325Z,240
2017-01-28T07:31:48.904Z,244
2017-01-28T07:32:29.424Z,256
2017-01-28T07:33:09.946Z,264
2017-01-28T07:33:50.474Z,272
2017-01-28T07:34:30.979Z,280
2017-01-28T07:35:11.518Z,292
2017-01-28T07:35:52.126Z,296
2017-01-28T07:36:32.651Z,300
2017-01-28T07:37:13.171Z,304
2017-01-28T07:37:53.687Z,300
2017-01-28T07:38:34.244Z,300
2017-01-28T07:39:14.773Z,296
2017-01-28T07:39:55.312Z,288
2017-01-28T07:40:35.847Z,288
2017-01-28T07:41:16.378Z,288
2017-01-28T07:41:56.927Z,288
2017-01-28T07:42:37.451Z,292
2017-01-28T07:43:17.982Z,296
2017-01-28T07:43:58.516Z,300
2017-01-28T07:44:39.067Z,308
2017-01-28T07:45:19.611Z,312
2017-01-28T07:46:00.144Z,324
2017-01-28T07:46:40.674Z,332
2017-01-28T07:47:21.208Z,340
2017-01-28T07:48:01.759Z,348
2017-01-28T07:48:42.264Z,360
2017-01-28T07:49:22.778Z,368
2017-01-28T07:50:03.288Z,380
2017-01-28T07:50:43.825Z,392
2017-01-28T07:51:24.360Z,404
2017-01-28T07:52:04.899Z,420
2017-01-28T07:52:45.433Z,440
2017-01-28T07:53:25.980Z,456
2017-01-28T07:54:06.548Z,476
2017-01-28T07:54:47.104Z,488
2017-01-28T07:55:27.634Z,512
2017-01-28T07:56:08.160Z,532
2017-01-28T07:56:48.698Z,556
2017-01-28T07:57:29.227Z,576
2017-01-28T07:58:09.768Z,596
2017-01-28T07:58:50.301Z,616
2017-01-28T07:59:30.834Z,636
2017-01-28T08:00:11.363Z,656
2017-01-28T08:00:51.901Z,676
2017-01-28T08:01:32.431Z,688
2017-01-28T08:02:12.994Z,696
2017-01-28T08:02:53.528Z,712
2017-01-28T08:03:34.054Z,716
2017-01-28T08:04:14.628Z,724
2017-01-28T08:04:55.154Z,728
2017-01-28T08:05:35.709Z,732
2017-01-28T08:06:16.242Z,744
2017-01-28T08:06:56.753Z,756
2017-01-28T08:07:37.284Z,760
2017-01-28T08:08:17.827Z,768
2017-01-28T08:08:58.381Z,776
2017-01-28T08:09:38.915Z,788
2017-01-28T08:10:19.446Z,804
2017-01-28T08:10:59.989Z,820
2017-01-28T08:11:40.514Z,840
2017-01-28T08:12:21.043Z,856
2017-01-28T08:13:01.584Z,880
2017-01-28T08:13:42.120Z,908
2017-01-28T08:14:22.657Z,932
2017-01-28T08:15:03.193Z,960
2017-01-28T08:15:43.707Z,984
2017-01-28T08:16:24.242Z,1012
2017-01-28T08:17:04.791Z,1032
2017-01-28T08:17:45.324Z,1052
2017-01-28T08:18:25.858Z,1072
2017-01-28T08:19:06.385Z,1088
2017-01-28T08:19:46.895Z,1104
2017-01-28T08:20:27.428Z,1120
2017-01-28T08:21:07.998Z,1136
2017-01-28T08:21:48.540Z,1148
2017-01-28T08:22:29.069Z,1156
2017-01-28T08:23:09.607Z,1176
2017-01-28T08:23:50.124Z,1192
2017-01-28T08:24:30.674Z,1208
2017-01-28T08:25:11.192Z,1228
2017-01-28T08:25:51.730Z,1244
2017-01-28T08:26:32.256Z,1264
2017-01-28T08:27:12.777Z,1288
2017-01-28T08:27:53.300Z,1308
2017-01-28T08:28:33.835Z,1344
2017-01-28T08:29:14.382Z,1376
2017-01-28T08:29:54.877Z,1408
2017-01-28T08:30:35.417Z,1440
2017-01-28T08:31:15.943Z,1468
2017-01-28T08:31:56.469Z,1496
2017-01-28T08:32:37.022Z,1512
2017-01-28T08:33:17.551Z,1528
2017-01-28T08:33:58.075Z,1548
2017-01-28T08:34:38.607Z,1564
2017-01-28T08:35:19.152Z,1584
2017-01-28T08:35:59.668Z,1604
2017-01-28T08:36:40.243Z,1620
2017-01-28T08:37:20.759Z,1636
2017-01-28T08:38:01.308Z,1660
2017-01-28T08:38:41.816Z,1680
2017-01-28T08:39:22.351Z,1704
2017-01-28T08:40:02.889Z,1728
2017-01-28T08:40:43.420Z,1744
2017-01-28T08:41:23.968Z,1768
2017-01-28T08:42:04.482Z,1804
2017-01-28T08:42:45.070Z,1848
2017-01-28T08:43:25.616Z,1904
2017-01-28T08:44:06.158Z,1960
2017-01-28T08:44:46.677Z,2016
2017-01-28T08:45:27.205Z,2068
2017-01-28T08:46:07.725Z,2112
2017-01-28T08:46:48.271Z,2160
2017-01-28T08:47:28.788Z,2204
2017-01-28T08:48:09.325Z,2260
2017-01-28T08:48:49.818Z,2324
2017-01-28T08:49:30.347Z,2384
2017-01-28T08:50:10.878Z,2440
2017-01-28T08:50:51.413Z,2480
2017-01-28T08:51:31.932Z,2524
2017-01-28T08:52:12.473Z,2568
2017-01-28T08:52:53.012Z,2624
2017-01-28T08:53:33.537Z,2652
2017-01-28T08:54:14.070Z,2656
2017-01-28T08:54:54.619Z,2660
2017-01-28T08:55:35.171Z,2644
2017-01-28T08:56:15.708Z,2632
2017-01-28T08:56:56.235Z,2632
2017-01-28T08:57:36.774Z,2632
2017-01-28T08:58:17.288Z,2628
2017-01-28T08:58:57.815Z,2592
2017-01-28T08:59:38.336Z,2552
2017-01-28T09:00:18.873Z,2548
2017-01-28T09:00:59.405Z,2544
2017-01-28T09:01:39.940Z,2572
2017-01-28T09:02:20.471Z,2664
2017-01-28T09:03:01.020Z,2832
2017-01-28T09:03:41.569Z,3100
2017-01-28T09:04:22.084Z,3668
2017-01-28T09:05:02.639Z,4180
2017-01-28T09:05:43.166Z,4224
2017-01-28T09:06:23.703Z,3956
2017-01-28T09:07:04.239Z,3920
2017-01-28T09:07:44.773Z,3940
2017-01-28T09:08:25.310Z,3920
2017-01-28T09:09:05.840Z,4020
2017-01-28T09:09:46.383Z,4044
2017-01-28T09:10:26.915Z,3972
2017-01-28T09:11:07.434Z,3952
2017-01-28T09:11:47.970Z,3888
2017-01-28T09:12:28.491Z,3924
2017-01-28T09:13:09.022Z,3916
2017-01-28T09:13:49.556Z,3944
2017-01-28T09:14:30.092Z,3964
2017-01-28T09:15:10.613Z,4044
2017-01-28T09:15:51.140Z,4012
2017-01-28T09:16:31.668Z,3988
2017-01-28T09:17:12.241Z,4204
2017-01-28T09:17:55.764Z,4396
2017-01-28T09:18:36.302Z,4476
2017-01-28T09:19:16.840Z,4620
2017-01-28T09:19:57.371Z,4664
2017-01-28T09:20:37.907Z,4916
2017-01-28T09:21:18.515Z,5208
2017-01-28T09:21:59.066Z,5424
2017-01-28T09:22:39.585Z,5444
2017-01-28T09:23:20.115Z,5680
2017-01-28T09:24:00.640Z,6196
2017-01-28T09:24:41.170Z,7136
2017-01-28T09:25:21.695Z,7912
2017-01-28T09:26:02.223Z,8960
2017-01-28T09:26:42.766Z,10208
2017-01-28T09:27:23.303Z,8292
2017-01-28T09:28:03.837Z,11728
2017-01-28T09:28:44.368Z,12252
2017-01-28T09:29:24.908Z,12912
2017-01-28T09:30:05.418Z,14912
2017-01-28T09:30:45.960Z,15456
2017-01-28T09:31:26.492Z,15552
2017-01-28T09:32:07.032Z,15744
2017-01-28T09:32:47.577Z,13180
2017-01-28T09:33:28.085Z,12316
2017-01-28T09:34:08.629Z,16032
2017-01-28T09:34:49.168Z,16832
2017-01-28T09:35:29.711Z,16320
2017-01-28T09:36:10.227Z,16000
2017-01-28T09:36:50.752Z,15264
2017-01-28T09:37:31.291Z,15328
2017-01-28T09:38:11.847Z,15456
2017-01-28T09:38:52.383Z,15776
2017-01-28T09:39:32.920Z,15872
2017-01-28T09:40:13.478Z,16064
2017-01-28T09:40:54.038Z,16128
2017-01-28T09:41:34.578Z,16800
2017-01-28T09:42:15.115Z,12984
2017-01-28T09:42:55.640Z,16640
2017-01-28T09:43:36.177Z,16672
2017-01-28T09:44:16.675Z,12996
2017-01-28T09:44:57.225Z,16736
2017-01-28T09:45:37.760Z,16704
2017-01-28T09:46:18.258Z,16832
2017-01-28T09:46:58.771Z,16320
2017-01-28T09:47:39.287Z,16480
2017-01-28T09:48:19.829Z,16768
2017-01-28T09:49:00.289Z,14528
2017-01-28T09:49:40.815Z,11628
2017-01-28T09:50:21.315Z,14592
2017-01-28T09:51:01.841Z,18784
2017-01-28T09:51:42.338Z,18912
2017-01-28T09:52:22.867Z,19008
2017-01-28T09:53:03.384Z,10384
2017-01-28T09:53:43.910Z,17696
2017-01-28T09:54:24.434Z,17376
2017-01-28T09:55:04.964Z,17952
2017-01-28T09:55:45.473Z,18400
2017-01-28T09:56:25.980Z,18368
2017-01-28T09:57:06.535Z,19008
2017-01-28T09:57:47.033Z,19008
2017-01-28T09:58:27.540Z,19040
2017-01-28T09:59:08.063Z,18592
2017-01-28T09:59:48.608Z,18944
2017-01-28T10:00:29.139Z,21696
2017-01-28T10:01:09.683Z,21920
2017-01-28T10:01:50.212Z,22368
2017-01-28T10:02:30.746Z,22592
2017-01-28T10:03:11.285Z,21312
2017-01-28T10:03:51.821Z,21984
2017-01-28T10:04:32.358Z,20192
2017-01-28T10:05:12.890Z,18144
2017-01-28T10:05:53.415Z,15744
2017-01-28T10:06:33.914Z,17408
2017-01-28T10:07:14.437Z,15776
2017-01-28T10:07:54.965Z,18624
2017-01-28T10:08:35.487Z,21856
2017-01-28T10:09:16.020Z,21888
2017-01-28T10:09:56.549Z,21120
2017-01-28T10:10:37.068Z,21184
2017-01-28T10:11:17.597Z,21120
2017-01-28T10:11:59.826Z,22080
2017-01-28T10:12:40.346Z,21952
2017-01-28T10:13:20.873Z,21664
2017-01-28T10:14:01.403Z,21344
2017-01-28T10:14:41.932Z,20736
2017-01-28T10:15:22.463Z,21248
2017-01-28T10:16:02.998Z,21984
2017-01-28T10:16:43.525Z,22656